Time;durP1;ratioP1;P1;durP2;ratioP2;P2;SDS_P1;SDS_P2;PMS_P1;PMS_P2;Temp;Humidity;BMP_temperature;BMP_pressure;BME280_temperature;BME280_humidity;BME280_pressure;Samples;Min_cycle;Max_cycle;Signal;HPM_P1;HPM_P2
2022/09/12 00:00:21;;;;;;;14.23;10.60;;;;;;;16.35;70.80;101633.69;5012807;28;20449;-85
2022/09/12 00:02:50;;;;;;;14.77;11.15;;;;;;;16.30;71.21;101627.47;5013078;28;20038;-86
2022/09/12 00:05:16;;;;;;;11.88;9.48;;;;;;;16.32;70.65;101630.16;5012689;28;20041;-85
2022/09/12 00:07:41;;;;;;;12.65;9.90;;;;;;;16.30;70.94;101623.91;5012967;28;20485;-85
2022/09/12 00:10:07;;;;;;;13.40;10.38;;;;;;;16.31;71.50;101623.03;5015189;28;20470;-85
2022/09/12 00:12:33;;;;;;;13.43;10.70;;;;;;;16.31;71.26;101615.03;5016620;28;20478;-85
2022/09/12 00:14:58;;;;;;;13.05;9.82;;;;;;;16.36;70.51;101623.91;5016413;28;20034;-85
2022/09/12 00:17:24;;;;;;;12.13;10.13;;;;;;;16.35;70.78;101617.69;5016155;28;20509;-85
2022/09/12 00:19:49;;;;;;;11.55;9.88;;;;;;;16.27;70.54;101617.72;5016469;28;20036;-84
2022/09/12 00:22:14;;;;;;;14.18;8.77;;;;;;;16.21;70.42;101612.38;5016260;28;20046;-85
2022/09/12 00:24:40;;;;;;;13.52;10.75;;;;;;;16.15;71.30;101595.50;5016034;28;20030;-85
2022/09/12 00:27:05;;;;;;;14.55;9.20;;;;;;;16.15;70.89;101606.16;4998330;28;20117;-85
2022/09/12 00:29:30;;;;;;;11.93;9.20;;;;;;;16.00;71.01;101610.56;5015703;28;20061;-85
2022/09/12 00:31:56;;;;;;;9.98;8.63;;;;;;;15.93;71.29;101614.16;5016090;28;20033;-85
2022/09/12 00:34:21;;;;;;;16.13;11.77;;;;;;;15.94;72.48;101607.03;5016287;28;20108;-85
2022/09/12 00:36:46;;;;;;;13.38;10.32;;;;;;;15.95;71.88;101603.47;5016303;28;20034;-85
2022/09/12 00:39:15;;;;;;;10.18;8.38;;;;;;;15.87;71.59;101605.25;5015824;28;20033;-85
2022/09/12 00:41:41;;;;;;;11.48;9.05;;;;;;;15.92;71.76;101607.00;5015974;28;20033;-85
2022/09/12 00:44:09;;;;;;;17.27;15.10;;;;;;;16.00;73.20;101604.38;5015718;28;20026;-85
2022/09/12 00:46:43;;;;;;;14.18;12.00;;;;;;;16.03;71.74;101605.25;5015703;28;20160;-85
2022/09/12 00:49:22;;;;;;;11.93;9.82;;;;;;;15.91;71.36;101594.59;5015660;28;20118;-85
2022/09/12 00:51:59;;;;;;;19.35;11.55;;;;;;;15.81;71.91;101594.59;5015772;28;20141;-85
2022/09/12 00:54:29;;;;;;;15.35;11.52;;;;;;;15.75;71.96;101590.13;5015699;28;20069;-85
2022/09/12 00:57:00;;;;;;;16.25;12.38;;;;;;;15.77;72.28;101589.25;5015614;28;20037;-85
2022/09/12 00:59:48;;;;;;;19.92;14.45;;;;;;;15.81;72.42;101592.81;5015328;28;20482;-85
2022/09/12 01:02:14;;;;;;;15.45;12.50;;;;;;;15.73;72.56;101575.91;5016509;28;20156;-85
2022/09/12 01:04:41;;;;;;;18.10;13.68;;;;;;;15.76;72.47;101583.94;5016264;28;20116;-85
2022/09/12 01:07:07;;;;;;;16.48;13.52;;;;;;;15.71;72.31;101580.34;5016156;28;20026;-85
2022/09/12 01:09:33;;;;;;;15.55;13.27;;;;;;;15.63;72.79;101584.72;5016163;28;20065;-86
2022/09/12 01:12:01;;;;;;;18.55;12.90;;;;;;;15.55;73.23;101583.84;5015607;28;20104;-84
2022/09/12 01:14:26;;;;;;;17.58;14.38;;;;;;;15.41;73.79;101576.69;5015548;28;20034;-85
2022/09/12 01:16:52;;;;;;;21.50;15.55;;;;;;;15.40;74.59;101572.25;5015302;28;20067;-85
2022/09/12 01:19:37;;;;;;;17.63;13.48;;;;;;;15.39;73.91;101567.81;5015008;28;20029;-85
2022/09/12 01:22:16;;;;;;;17.60;12.88;;;;;;;15.50;73.41;101576.75;5015008;28;20061;-85
2022/09/12 01:24:44;;;;;;;18.88;14.02;;;;;;;15.63;73.22;101582.06;5015124;28;20036;-86
2022/09/12 01:27:28;;;;;;;17.70;14.23;;;;;;;15.68;72.64;101586.56;5015028;28;20026;-85
2022/09/12 01:30:21;;;;;;;16.48;13.85;;;;;;;15.70;72.03;101575.91;5015051;28;20041;-86
2022/09/12 01:33:13;;;;;;;20.92;15.02;;;;;;;15.73;72.46;101566.16;5014810;28;20057;-84
2022/09/12 01:35:55;;;;;;;19.17;14.70;;;;;;;15.72;72.60;101564.38;5015022;28;20044;-85
2022/09/12 01:38:28;;;;;;;18.92;13.73;;;;;;;15.71;72.33;101564.34;4997268;28;20048;-86
2022/09/12 01:40:59;;;;;;;18.33;13.57;;;;;;;15.58;72.56;101558.09;5014853;28;20030;-86
2022/09/12 01:43:41;;;;;;;17.63;14.40;;;;;;;15.58;73.44;101542.09;5014847;28;20390;-86
2022/09/12 01:46:20;;;;;;;20.35;15.80;;;;;;;15.66;73.91;101550.13;5014657;28;20068;-86
2022/09/12 01:49:11;;;;;;;19.42;14.23;;;;;;;15.56;72.69;101554.53;5014719;28;20064;-85
2022/09/12 01:51:55;;;;;;;15.13;11.88;;;;;;;15.35;73.58;101562.50;5014539;28;20041;-79
2022/09/12 01:54:29;;;;;;;11.88;10.05;;;;;;;15.18;74.28;101562.44;5014877;28;20497;-79
2022/09/12 01:56:59;;;;;;;15.80;11.85;;;;;;;15.25;74.39;101550.94;5015096;28;20440;-79
2022/09/12 01:59:31;;;;;;;20.77;16.58;;;;;;;15.37;75.73;101542.94;5015291;28;20034;-79
2022/09/12 02:02:08;;;;;;;13.55;9.15;;;;;;;15.37;73.24;101545.59;5014996;28;20030;-79
2022/09/12 02:04:41;;;;;;;13.65;10.15;;;;;;;15.19;73.55;101543.78;4997363;28;20026;-79
2022/09/12 02:07:17;;;;;;;14.18;9.73;;;;;;;15.22;73.07;101527.84;5014611;28;20038;-79
2022/09/12 02:10:05;;;;;;;15.23;11.38;;;;;;;15.18;73.85;101535.81;4997377;28;20037;-79
2022/09/12 02:12:41;;;;;;;16.70;11.70;;;;;;;15.18;73.36;101526.06;5000314;28;20121;-80
2022/09/12 02:15:08;;;;;;;16.10;10.60;;;;;;;15.08;73.58;101528.69;5014244;28;20030;-80
2022/09/12 02:17:42;;;;;;;14.15;10.40;;;;;;;15.07;73.59;101529.56;5014802;28;20063;-80
2022/09/12 02:20:14;;;;;;;17.55;11.98;;;;;;;15.05;74.04;101524.25;4997694;28;20052;-79
2022/09/12 02:22:43;;;;;;;15.68;12.73;;;;;;;15.07;74.13;101522.47;5014556;28;20445;-79
2022/09/12 02:25:10;;;;;;;14.65;11.43;;;;;;;14.96;74.01;101527.75;4996301;28;20026;-79
2022/09/12 02:27:47;;;;;;;14.95;11.88;;;;;;;14.91;74.19;101524.19;5014004;28;20397;-80
2022/09/12 02:30:16;;;;;;;16.17;12.73;;;;;;;14.85;74.46;101518.84;4997568;28;20033;-79
2022/09/12 02:33:04;;;;;;;14.00;11.48;;;;;;;14.85;74.42;101524.16;5013763;28;20030;-79
2022/09/12 02:35:38;;;;;;;16.70;11.32;;;;;;;14.73;74.96;101526.75;4996817;28;20037;-80
2022/09/12 02:38:13;;;;;;;16.92;11.82;;;;;;;14.60;75.21;101527.59;5013893;28;20112;-79
2022/09/12 02:40:39;;;;;;;15.93;12.25;;;;;;;14.51;75.38;101531.09;5014445;28;20053;-80
2022/09/12 02:43:05;;;;;;;17.13;13.50;;;;;;;14.45;75.78;101537.22;5014080;28;20121;-80
2022/09/12 02:45:33;;;;;;;16.45;13.00;;;;;;;14.42;75.62;101531.88;5014218;28;20112;-80
2022/09/12 02:47:58;;;;;;;14.43;11.77;;;;;;;14.44;75.50;101527.47;4996415;28;20080;-79
2022/09/12 02:50:24;;;;;;;14.88;12.57;;;;;;;14.50;75.49;101532.84;5014806;28;20466;-79
2022/09/12 02:52:52;;;;;;;19.60;12.88;;;;;;;14.55;75.26;101526.69;5014298;28;20034;-79
2022/09/12 02:55:18;;;;;;;18.15;13.10;;;;;;;14.67;74.82;101518.75;5013972;28;20108;-79
2022/09/12 02:57:43;;;;;;;19.00;13.15;;;;;;;14.79;74.48;101518.81;5014687;28;20113;-79
2022/09/12 03:00:10;;;;;;;17.45;13.13;;;;;;;14.80;74.16;101509.94;4979930;28;20371;-79
2022/09/12 03:02:44;;;;;;;19.50;13.43;;;;;;;14.87;74.50;101508.22;5014657;28;20049;-80
2022/09/12 03:05:31;;;;;;;16.75;13.57;;;;;;;14.95;73.80;101509.13;5014266;28;20037;-80
2022/09/12 03:08:13;;;;;;;17.67;12.85;;;;;;;14.98;73.33;101512.66;5014277;28;20034;-79
2022/09/12 03:10:57;;;;;;;17.83;12.18;;;;;;;14.98;72.99;101504.69;5014181;28;20025;-79
2022/09/12 03:13:54;;;;;;;13.73;11.13;;;;;;;14.95;72.88;101496.72;5014419;28;20036;-79
2022/09/12 03:16:44;;;;;;;13.07;9.90;;;;;;;15.00;72.98;101497.63;4990867;28;20045;-79
2022/09/12 03:19:26;;;;;;;17.85;10.65;;;;;;;15.02;73.61;101501.16;4996425;28;20032;-80
2022/09/12 03:21:51;;;;;;;10.40;8.88;;;;;;;14.95;72.69;101499.38;5013882;28;20421;-80
2022/09/12 03:24:17;;;;;;;11.20;8.98;;;;;;;14.72;73.48;101499.28;5013957;28;20458;-79
2022/09/12 03:27:08;;;;;;;10.23;8.45;;;;;;;14.69;73.68;101501.06;4995930;28;20371;-79
2022/09/12 03:29:36;;;;;;;13.32;9.20;;;;;;;14.66;74.53;101493.94;5014329;28;20029;-81
2022/09/12 03:32:02;;;;;;;9.95;8.23;;;;;;;14.72;73.79;101493.06;5013365;28;20038;-80
2022/09/12 03:34:27;;;;;;;10.90;8.68;;;;;;;14.62;73.24;101491.25;5014157;28;20529;-79
2022/09/12 03:36:57;;;;;;;10.98;8.50;;;;;;;14.60;73.42;101498.31;5013580;28;20458;-79
2022/09/12 03:39:23;;;;;;;11.18;9.18;;;;;;;14.46;73.83;101482.28;5013542;28;20425;-80
2022/09/12 03:41:49;;;;;;;11.85;9.55;;;;;;;14.42;74.44;101494.66;4995874;28;20080;-80
2022/09/12 03:44:16;;;;;;;13.43;9.70;;;;;;;14.34;75.21;101498.16;4996847;28;20501;-80
2022/09/12 03:46:41;;;;;;;13.23;10.70;;;;;;;14.33;75.44;101486.63;5017179;28;20030;-80
2022/09/12 03:49:06;;;;;;;13.52;10.63;;;;;;;14.38;75.30;101495.53;4999680;28;20045;-80
2022/09/12 03:51:32;;;;;;;17.40;12.90;;;;;;;14.46;75.92;101490.25;5017188;28;20121;-80
2022/09/12 03:53:57;;;;;;;18.80;13.57;;;;;;;14.52;76.04;101491.22;5017388;28;20080;-79
2022/09/12 03:56:22;;;;;;;17.80;12.52;;;;;;;14.46;75.67;101487.59;5017000;28;20382;-80
2022/09/12 03:58:48;;;;;;;15.43;11.30;;;;;;;14.44;75.35;101482.28;4999402;28;20084;-81
2022/09/12 04:01:16;;;;;;;19.50;13.40;;;;;;;14.51;76.36;101483.22;5016918;28;20081;-80
2022/09/12 04:03:44;;;;;;;18.85;14.90;;;;;;;14.51;76.26;101484.09;5016670;28;20037;-80
2022/09/12 04:06:12;;;;;;;14.90;11.30;;;;;;;14.57;74.98;101485.94;5016818;28;20100;-80
2022/09/12 04:08:38;;;;;;;18.08;13.45;;;;;;;14.66;75.59;101477.09;5016828;28;20022;-80
2022/09/12 04:11:05;;;;;;;16.55;11.95;;;;;;;14.62;74.88;101481.50;5016795;28;20061;-80
2022/09/12 04:13:30;;;;;;;19.70;14.40;;;;;;;14.70;75.68;101474.44;5016716;28;20034;-80
2022/09/12 04:15:59;;;;;;;20.80;15.27;;;;;;;14.75;76.09;101477.13;5016761;28;20037;-79
2022/09/12 04:18:24;;;;;;;20.95;15.60;;;;;;;14.78;76.09;101472.72;5016607;28;20045;-79
2022/09/12 04:20:50;;;;;;;20.35;13.73;;;;;;;14.78;75.25;101478.03;4982763;28;20029;-79
2022/09/12 04:23:15;;;;;;;17.88;13.45;;;;;;;14.74;74.79;101467.38;4998499;28;20049;-80
2022/09/12 04:25:41;;;;;;;18.95;13.98;;;;;;;14.63;74.48;101461.13;4998940;28;20363;-80
2022/09/12 04:28:07;;;;;;;18.73;14.57;;;;;;;14.70;76.31;101478.88;4998808;28;20421;-79
2022/09/12 04:30:33;;;;;;;23.50;15.45;;;;;;;14.71;75.63;101467.34;5016170;28;20081;-80
2022/09/12 04:32:59;;;;;;;20.25;14.85;;;;;;;14.74;76.28;101470.91;4998990;28;20038;-82
2022/09/12 04:35:24;;;;;;;19.38;15.15;;;;;;;14.77;76.00;101464.69;5016320;28;20030;-80
2022/09/12 04:37:49;;;;;;;20.23;14.60;;;;;;;14.81;75.97;101466.50;5016033;28;20107;-80
2022/09/12 04:40:15;;;;;;;19.98;14.82;;;;;;;14.80;76.53;101466.50;4998555;28;20398;-79
2022/09/12 04:42:40;;;;;;;20.88;15.27;;;;;;;14.76;76.78;101466.47;4998849;28;20057;-80
2022/09/12 04:45:06;;;;;;;20.63;14.00;;;;;;;14.73;76.17;101457.59;5015787;28;20038;-82
2022/09/12 04:47:31;;;;;;;19.88;13.70;;;;;;;14.70;76.48;101442.53;5016678;28;20030;-80
2022/09/12 04:49:57;;;;;;;21.25;15.27;;;;;;;14.78;76.94;101451.44;5016312;28;20069;-79
2022/09/12 04:52:22;;;;;;;21.25;15.32;;;;;;;14.81;77.12;101453.19;4982179;28;20528;-79
2022/09/12 04:54:48;;;;;;;21.40;15.18;;;;;;;14.84;77.02;101458.53;5015525;28;20160;-79
2022/09/12 04:57:13;;;;;;;21.02;14.88;;;;;;;14.85;76.95;101456.75;4998350;28;20046;-80
2022/09/12 04:59:38;;;;;;;22.85;15.95;;;;;;;14.75;76.81;101443.44;5015822;28;20109;-81
2022/09/12 05:02:04;;;;;;;21.13;15.98;;;;;;;14.84;76.81;101457.66;4998647;28;20025;-80
2022/09/12 05:04:30;;;;;;;23.05;16.23;;;;;;;14.80;77.24;101451.41;4998428;28;20484;-80
2022/09/12 05:06:56;;;;;;;21.67;15.88;;;;;;;14.79;77.19;101460.28;5015713;28;20458;-80
2022/09/12 05:09:21;;;;;;;22.60;15.75;;;;;;;14.83;77.24;101463.84;4998407;28;20042;-80
2022/09/12 05:11:47;;;;;;;21.98;14.50;;;;;;;14.85;77.52;101460.28;5015349;28;20030;-80
2022/09/12 05:14:12;;;;;;;25.25;16.20;;;;;;;14.85;77.22;101464.72;5015275;28;20529;-80
2022/09/12 05:16:39;;;;;;;22.70;15.02;;;;;;;14.84;77.00;101461.19;4998668;28;20117;-80
2022/09/12 05:19:05;;;;;;;22.00;15.18;;;;;;;14.83;76.98;101466.50;4998263;28;20404;-80
2022/09/12 05:21:30;;;;;;;20.55;15.07;;;;;;;14.84;77.27;101461.19;4998320;28;20065;-80
2022/09/12 05:24:00;;;;;;;23.73;15.38;;;;;;;14.85;77.18;101467.41;5015749;28;20128;-80
2022/09/12 05:26:26;;;;;;;20.00;13.98;;;;;;;14.88;77.47;101470.97;5015607;28;20076;-80
2022/09/12 05:28:52;;;;;;;23.85;15.88;;;;;;;14.90;77.51;101463.88;4997706;28;20037;-79
2022/09/12 05:31:23;;;;;;;23.35;16.00;;;;;;;14.94;77.78;101470.06;4997681;28;20417;-79
2022/09/12 05:33:50;;;;;;;20.42;14.90;;;;;;;14.89;77.36;101466.53;5015782;28;20068;-80
2022/09/12 05:36:22;;;;;;;22.42;15.05;;;;;;;14.88;77.47;101464.75;4997813;28;20088;-79
2022/09/12 05:38:48;;;;;;;22.25;15.18;;;;;;;14.88;77.39;101459.44;5015425;28;20034;-79
2022/09/12 05:41:17;;;;;;;24.63;16.48;;;;;;;14.92;77.91;101466.53;5015094;28;20026;-79
2022/09/12 05:43:44;;;;;;;22.80;15.25;;;;;;;14.95;77.77;101462.13;4997391;28;20065;-80
2022/09/12 05:46:19;;;;;;;20.55;15.73;;;;;;;14.98;77.52;101466.53;5014581;28;20026;-79
2022/09/12 05:48:46;;;;;;;23.95;15.35;;;;;;;15.01;77.59;101463.91;4997338;28;20551;-78
2022/09/12 05:51:18;;;;;;;25.88;16.38;;;;;;;15.00;77.92;101470.13;4997328;28;20505;-79
2022/09/12 05:53:44;;;;;;;20.77;15.90;;;;;;;15.06;78.02;101469.22;4997599;28;20034;-77
2022/09/12 05:56:15;;;;;;;23.20;16.27;;;;;;;15.07;77.86;101471.88;5015694;28;20367;-78
2022/09/12 05:58:43;;;;;;;25.75;17.23;;;;;;;15.08;77.99;101470.13;5014786;28;20030;-77
2022/09/12 06:01:19;;;;;;;23.27;16.70;;;;;;;15.09;77.93;101469.25;5014725;28;20462;-77
2022/09/12 06:03:50;;;;;;;24.00;16.15;;;;;;;15.14;78.02;101483.44;5014461;28;20033;-78
2022/09/12 06:06:19;;;;;;;25.10;16.45;;;;;;;15.15;77.70;101479.91;4996518;28;20037;-79
2022/09/12 06:08:46;;;;;;;25.00;15.68;;;;;;;15.19;77.85;101487.00;4996752;28;20030;-79
2022/09/12 06:11:14;;;;;;;24.55;16.65;;;;;;;15.17;77.81;101481.69;4997310;28;20128;-79
2022/09/12 06:13:41;;;;;;;24.88;17.40;;;;;;;15.09;78.05;101485.22;4997291;28;20083;-79
2022/09/12 06:16:13;;;;;;;24.95;16.35;;;;;;;15.06;78.41;101483.41;5014225;28;20030;-79
2022/09/12 06:18:40;;;;;;;23.50;15.37;;;;;;;15.12;78.65;101475.47;5014489;28;20037;-79
2022/09/12 06:21:11;;;;;;;21.25;16.40;;;;;;;15.14;78.72;101483.44;4997288;28;20324;-79
2022/09/12 06:23:37;;;;;;;26.30;16.23;;;;;;;15.14;78.76;101484.34;5014653;28;20045;-82
2022/09/12 06:26:04;;;;;;;22.67;16.58;;;;;;;15.03;79.35;101489.66;5014847;28;20026;-78
2022/09/12 06:28:31;;;;;;;25.00;17.15;;;;;;;14.96;79.64;101487.84;5014572;28;20109;-80
2022/09/12 06:31:04;;;;;;;23.58;15.98;;;;;;;15.01;79.39;101487.84;4997389;28;20061;-79
2022/09/12 06:33:33;;;;;;;26.33;18.65;;;;;;;15.02;80.63;101476.31;4996679;28;20072;-80
2022/09/12 06:36:03;;;;;;;24.63;16.95;;;;;;;14.89;80.24;101469.19;5014133;28;20541;-81
2022/09/12 06:38:29;;;;;;;29.08;21.30;;;;;;;14.90;80.35;101476.28;5013873;28;20466;-81
2022/09/12 06:40:54;;;;;;;33.40;17.50;;;;;;;14.89;80.43;101480.72;4996725;28;20041;-79
2022/09/12 06:43:20;;;;;;;23.80;17.05;;;;;;;14.95;80.85;101475.44;5014898;28;20085;-79
2022/09/12 06:45:49;;;;;;;28.20;17.17;;;;;;;14.95;80.82;101475.44;5014237;28;20033;-80
2022/09/12 06:48:14;;;;;;;26.75;17.02;;;;;;;15.03;80.43;101473.69;4996965;28;20029;-79
2022/09/12 06:50:40;;;;;;;24.92;17.42;;;;;;;15.13;80.51;101477.25;5014548;28;20036;-79
2022/09/12 06:53:06;;;;;;;26.30;17.75;;;;;;;15.13;80.90;101468.38;5013683;28;20042;-79
2022/09/12 06:55:32;;;;;;;25.73;17.05;;;;;;;15.22;80.97;101466.59;4996318;28;20492;-79
2022/09/12 06:57:58;;;;;;;23.55;17.65;;;;;;;15.26;81.33;101468.38;5014017;28;20038;-80
2022/09/12 07:00:23;;;;;;;24.02;17.38;;;;;;;15.58;81.61;101475.50;5014483;28;20030;-78
2022/09/12 07:02:55;;;;;;;24.80;17.67;;;;;;;15.89;80.88;101483.53;5013935;28;20061;-77
2022/09/12 07:05:21;;;;;;;24.55;17.17;;;;;;;16.15;80.23;101479.06;4996276;28;20036;-79
2022/09/12 07:07:46;;;;;;;25.90;17.92;;;;;;;16.23;80.23;101471.00;5014497;28;20037;-78
2022/09/12 07:10:11;;;;;;;25.33;18.40;;;;;;;16.09;79.63;101467.50;5013834;28;20541;-81
2022/09/12 07:12:37;;;;;;;26.70;18.15;;;;;;;16.05;80.15;101473.72;4997124;28;20065;-82
2022/09/12 07:15:02;;;;;;;23.35;17.50;;;;;;;16.07;79.61;101482.63;5013194;28;20038;-78
2022/09/12 07:17:28;;;;;;;21.25;15.82;;;;;;;16.10;79.80;101478.19;5013396;28;20066;-78
2022/09/12 07:19:53;;;;;;;25.55;17.70;;;;;;;16.21;80.08;101473.69;5017866;28;20466;-78
2022/09/12 07:22:18;;;;;;;23.50;16.45;;;;;;;16.27;80.14;101465.69;4999613;28;20128;-78
2022/09/12 07:24:44;;;;;;;22.75;16.80;;;;;;;16.39;80.31;101464.75;5017971;28;20141;-78
2022/09/12 07:27:10;;;;;;;25.17;17.55;;;;;;;16.45;80.40;101458.53;5000278;28;20145;-78
2022/09/12 07:29:36;;;;;;;22.67;17.05;;;;;;;16.61;80.61;101462.00;5017595;28;20034;-78
2022/09/12 07:32:02;;;;;;;22.90;17.27;;;;;;;16.70;78.94;101460.19;5018344;28;20108;-78
2022/09/12 07:34:27;;;;;;;21.15;16.67;;;;;;;16.86;78.53;101463.69;5017427;28;20481;-77
2022/09/12 07:36:52;;;;;;;24.75;17.27;;;;;;;17.02;78.23;101454.72;5017350;28;20041;-76
2022/09/12 07:39:18;;;;;;;23.55;17.00;;;;;;;17.18;77.14;101459.97;4999461;28;20112;-77
2022/09/12 07:41:44;;;;;;;23.88;17.05;;;;;;;17.42;77.19;101466.91;4999904;28;20030;-77
2022/09/12 07:44:09;;;;;;;21.05;16.73;;;;;;;17.73;76.08;101459.53;5017502;28;20061;-77
2022/09/12 07:46:35;;;;;;;21.83;16.20;;;;;;;18.14;75.22;101466.28;5017161;28;20397;-77
2022/09/12 07:49:00;;;;;;;22.92;17.08;;;;;;;18.25;73.74;101470.63;5016933;28;20068;-77
2022/09/12 07:51:29;;;;;;;24.80;16.73;;;;;;;18.44;72.80;101468.63;4999796;28;20030;-78
2022/09/12 07:53:55;;;;;;;21.88;15.98;;;;;;;18.53;72.60;101468.50;5017171;28;20034;-77
2022/09/12 07:56:21;;;;;;;26.88;16.67;;;;;;;18.81;73.16;101464.66;4999707;28;20061;-78
2022/09/12 07:58:46;;;;;;;22.02;16.27;;;;;;;18.92;71.69;101457.34;5000323;28;20120;-78
2022/09/12 08:01:15;;;;;;;25.25;16.33;;;;;;;19.14;70.78;101474.91;5016983;28;20025;-78
2022/09/12 08:03:42;;;;;;;19.63;15.43;;;;;;;19.45;70.43;101482.47;5017016;28;20041;-78
2022/09/12 08:06:10;;;;;;;23.42;15.77;;;;;;;19.75;69.74;101475.75;5016857;28;20037;-77
2022/09/12 08:08:36;;;;;;;18.17;14.90;;;;;;;20.14;68.40;101475.94;5017137;28;20042;-79
2022/09/12 08:11:04;;;;;;;20.10;14.73;;;;;;;20.42;66.64;101462.84;5016823;28;20034;-78
2022/09/12 08:13:30;;;;;;;21.05;15.25;;;;;;;20.67;65.64;101464.16;5016441;28;20390;-78
2022/09/12 08:16:01;;;;;;;19.13;14.43;;;;;;;20.97;64.73;101470.66;5016386;28;20029;-78
2022/09/12 08:18:28;;;;;;;21.38;13.60;;;;;;;21.26;63.26;101470.00;5017254;28;20030;-79
2022/09/12 08:21:04;;;;;;;22.85;14.57;;;;;;;21.36;63.71;101470.69;5015653;28;20030;-79
2022/09/12 08:23:30;;;;;;;16.85;13.15;;;;;;;21.43;61.45;101469.63;5017149;28;20082;-79
2022/09/12 08:25:57;;;;;;;14.98;12.98;;;;;;;21.44;61.76;101471.38;5016906;28;20053;-79
2022/09/12 08:28:24;;;;;;;17.67;13.25;;;;;;;21.62;61.56;101472.72;5016399;28;20041;-78
2022/09/12 08:30:49;;;;;;;17.45;13.10;;;;;;;21.61;60.88;101470.97;4998005;28;20088;-79
2022/09/12 08:33:15;;;;;;;16.10;13.10;;;;;;;21.88;61.03;101472.06;4998818;28;20038;-77
2022/09/12 08:35:40;;;;;;;17.85;13.60;;;;;;;21.99;60.62;101472.69;4999557;28;20033;-79
2022/09/12 08:38:05;;;;;;;18.88;13.07;;;;;;;22.08;61.33;101476.94;5016333;28;20037;-76
2022/09/12 08:40:39;;;;;;;16.58;13.05;;;;;;;22.06;60.92;101477.91;5016501;28;20463;-77
2022/09/12 08:43:27;;;;;;;18.63;13.18;;;;;;;22.31;60.85;101480.81;5016556;28;20040;-77
2022/09/12 08:46:12;;;;;;;22.95;14.00;;;;;;;22.61;61.31;101468.28;5016182;28;20030;-77
2022/09/12 08:48:38;;;;;;;15.25;12.15;;;;;;;22.87;58.62;101483.69;5016662;28;20026;-80
2022/09/12 08:51:04;;;;;;;15.00;11.73;;;;;;;22.80;57.36;101477.63;5016169;28;20469;-80
2022/09/12 08:53:34;;;;;;;16.45;11.98;;;;;;;23.02;57.50;101475.19;5016280;28;20030;-77
2022/09/12 08:56:03;;;;;;;17.30;12.45;;;;;;;23.17;58.15;101465.75;5016861;28;20081;-80
2022/09/12 08:58:38;;;;;;;13.35;11.05;;;;;;;23.30;56.72;101468.91;4999158;28;20053;-79
2022/09/12 09:01:22;;;;;;;15.38;11.13;;;;;;;23.33;56.72;101466.13;4998495;28;20026;-80
2022/09/12 09:03:54;;;;;;;16.48;11.32;;;;;;;23.23;56.34;101465.53;4998214;28;20030;-80
2022/09/12 09:06:54;;;;;;;15.52;11.68;;;;;;;23.23;58.24;101452.94;5015796;28;20041;-79
2022/09/12 09:09:55;;;;;;;16.52;11.43;;;;;;;23.67;56.43;101464.09;5016341;28;20108;-80
2022/09/12 09:12:42;;;;;;;15.25;11.88;;;;;;;24.09;55.32;101463.56;4988843;28;20033;-80
2022/09/12 09:15:29;;;;;;;14.50;11.38;;;;;;;24.03;53.90;101465.59;4997992;28;20033;-80
2022/09/12 09:18:15;;;;;;;16.25;10.48;;;;;;;24.33;55.21;101452.81;5015895;28;20029;-80
2022/09/12 09:20:59;;;;;;;13.15;9.70;;;;;;;24.73;53.29;101455.78;5015796;28;20108;-80
2022/09/12 09:23:24;;;;;;;13.40;10.00;;;;;;;24.76;52.85;101456.63;5016643;28;20344;-80
2022/09/12 09:26:13;;;;;;;10.88;9.32;;;;;;;24.64;53.40;101439.94;5015020;28;20519;-80
2022/09/12 09:29:04;;;;;;;16.60;10.00;;;;;;;24.54;52.87;101448.44;5015685;28;20026;-80
2022/09/12 09:31:36;;;;;;;11.13;8.43;;;;;;;24.56;52.70;101444.75;5004384;28;20084;-80
2022/09/12 09:34:13;;;;;;;10.15;8.15;;;;;;;24.98;51.47;101444.03;4998544;28;20032;-80
2022/09/12 09:37:04;;;;;;;9.15;7.55;;;;;;;25.17;51.58;101438.78;5015242;28;20034;-80
2022/09/12 09:39:51;;;;;;;10.80;6.63;;;;;;;24.99;48.92;101443.97;5015151;28;20026;-80
2022/09/12 09:42:29;;;;;;;10.60;7.00;;;;;;;25.17;51.12;101455.00;5015404;28;20030;-81
2022/09/12 09:44:59;;;;;;;8.43;6.22;;;;;;;25.21;48.53;101435.88;5013981;28;20109;-80
2022/09/12 09:47:24;;;;;;;9.93;7.10;;;;;;;25.28;48.87;101436.53;4997713;28;20112;-80
2022/09/12 09:49:50;;;;;;;9.00;6.63;;;;;;;25.52;49.20;101439.16;4997678;28;20535;-80
2022/09/12 09:52:23;;;;;;;8.18;6.10;;;;;;;25.77;47.67;101428.19;5015226;28;20484;-83
2022/09/12 09:54:54;;;;;;;7.78;5.38;;;;;;;26.07;45.69;101423.25;5015225;28;20521;-80
2022/09/12 09:57:34;;;;;;;8.07;5.60;;;;;;;26.15;46.64;101421.09;4997588;28;20080;-80
2022/09/12 10:00:25;;;;;;;8.40;6.30;;;;;;;26.11;46.85;101416.75;5014804;28;20021;-80
2022/09/12 10:03:30;;;;;;;7.15;5.03;;;;;;;26.43;47.43;101410.75;5015351;28;20028;-80
2022/09/12 10:06:05;;;;;;;7.20;4.90;;;;;;;26.69;44.84;101400.56;4954657;29;20047;-80
2022/09/12 10:08:34;;;;;;;9.00;5.30;;;;;;;26.89;43.80;101394.16;5007568;28;20046;-81
2022/09/12 10:11:25;;;;;;;7.53;5.70;;;;;;;26.95;44.97;101407.44;5014625;28;20030;-80
2022/09/12 10:13:56;;;;;;;6.10;5.10;;;;;;;26.88;44.55;101403.25;4982321;28;20065;-81
2022/09/12 10:16:26;;;;;;;9.20;4.93;;;;;;;26.60;46.35;101399.16;5014275;28;20041;-80
2022/09/12 10:18:53;;;;;;;7.20;5.68;;;;;;;26.38;43.52;101404.69;5015049;28;20045;-81
2022/09/12 10:21:28;;;;;;;7.63;5.07;;;;;;;26.50;45.45;101386.09;5014177;28;20512;-80
2022/09/12 10:24:04;;;;;;;11.48;5.90;;;;;;;26.40;45.10;101393.75;4997184;28;20038;-79
2022/09/12 10:26:37;;;;;;;10.77;5.20;;;;;;;26.59;45.52;101383.81;5015579;28;20104;-80
2022/09/12 10:29:13;;;;;;;7.65;5.50;;;;;;;26.72;45.18;101386.81;5014096;28;20096;-80
2022/09/12 10:31:48;;;;;;;8.98;4.30;;;;;;;26.59;41.89;101372.97;5014540;28;20034;-80
2022/09/12 10:34:41;;;;;;;9.02;4.40;;;;;;;26.58;43.40;101370.34;5013974;28;20034;-80
2022/09/12 10:37:08;;;;;;;5.13;4.22;;;;;;;26.38;42.15;101372.16;5007819;28;20054;-80
2022/09/12 10:39:36;;;;;;;6.03;4.30;;;;;;;26.19;41.59;101372.09;5013901;28;20121;-80
2022/09/12 10:42:03;;;;;;;5.57;3.97;;;;;;;26.18;43.25;101372.19;5013838;28;20030;-80
2022/09/12 10:44:32;;;;;;;6.57;4.13;;;;;;;26.62;42.22;101367.41;4996437;28;20038;-81
2022/09/12 10:46:59;;;;;;;5.30;4.20;;;;;;;27.09;41.55;101355.19;5014263;28;20026;-80
2022/09/12 10:49:26;;;;;;;6.80;4.60;;;;;;;27.44;42.32;101353.44;5014045;28;20497;-80
2022/09/12 10:51:53;;;;;;;5.68;4.40;;;;;;;27.62;41.10;101357.94;5013947;28;20474;-82
2022/09/12 10:54:22;;;;;;;5.10;4.15;;;;;;;27.98;40.10;101353.38;5014177;28;20108;-80
2022/09/12 10:56:56;;;;;;;6.60;4.30;;;;;;;27.89;40.73;101344.75;5014518;28;20080;-79
2022/09/12 10:59:43;;;;;;;7.80;4.55;;;;;;;28.10;40.83;101348.16;5013654;28;20034;-82
2022/09/12 11:02:20;;;;;;;7.47;5.03;;;;;;;27.91;40.48;101322.91;5013607;28;20363;-80
2022/09/12 11:05:01;;;;;;;6.82;4.80;;;;;;;28.23;39.61;101334.75;5013569;28;20080;-80
2022/09/12 11:07:44;;;;;;;6.78;4.72;;;;;;;28.31;41.34;101323.44;4996676;28;20033;-80
2022/09/12 11:10:30;;;;;;;6.45;4.03;;;;;;;27.99;39.59;101330.66;5013531;28;20105;-80
2022/09/12 11:13:28;;;;;;;4.72;4.05;;;;;;;28.07;40.50;101332.00;5013785;28;20026;-80
2022/09/12 11:16:31;;;;;;;5.65;4.07;;;;;;;27.92;40.82;101333.72;5014641;28;20033;-80
2022/09/12 11:19:18;;;;;;;6.05;3.70;;;;;;;27.85;41.34;101328.69;5003656;28;20068;-80
2022/09/12 11:22:22;;;;;;;5.47;4.40;;;;;;;27.90;40.48;101318.47;4996495;28;20132;-80
2022/09/12 11:25:26;;;;;;;6.88;4.43;;;;;;;27.89;40.34;101320.28;4996714;28;20434;-79
2022/09/12 11:28:04;;;;;;;5.72;4.57;;;;;;;27.71;41.15;101318.53;5013969;28;20068;-79
2022/09/12 11:30:42;;;;;;;6.72;4.93;;;;;;;27.55;42.10;101318.47;5013706;28;20447;-80